Upper Providence, Pennsylvania
Current Conditions -  °F | °C
As of 1:54 PM on Tuesday 21 Oct 2014 (Local Time) from KPHL Reporting Station
Scattered Clouds Scattered Clouds  
Wind Chill: 68°   Ceiling: Unl
Heat Index: 68°   Visibility: 10mi
Dew Point: 46°   Wind: 5mph
Humidity: 45%   Direction: 260°W
Pressure: 29.82"   Gusts: NA
Location:  39.9207°N, 75.4181°W
Report Text: KPHL 211754Z 26004KT 10SM SCT048 SCT110 20/08 A2982 RMK AO2 SLP097 T02000078 10206 20122 58019
Loading
Personal Weather Stations






























Interactive Weather Map
Tropical Storm Tracking
New forecast layout! Learn more

10-Day Weather Forecast

Advertisements
Track Severe Weather on mobile